Time;durP1;ratioP1;P1;durP2;ratioP2;P2;SDS_P1;SDS_P2;PMS_P1;PMS_P2;Temp;Humidity;BMP_temperature;BMP_pressure;BME280_temperature;BME280_humidity;BME280_pressure;Samples;Min_cycle;Max_cycle;Signal;HPM_P1;HPM_P2
2022/03/25 17:08:31;;;;;;;23.35;12.63;;;14.70;63.90;;;;;;5142219;27;20114;-84
2022/03/25 17:10:57;;;;;;;28.27;14.55;;;14.50;64.60;;;;;;5112540;28;20027;-83
2022/03/25 17:13:22;;;;;;;21.15;12.23;;;14.60;64.90;;;;;;5126773;27;20031;-85
2022/03/25 17:15:48;;;;;;;22.63;13.20;;;14.70;64.70;;;;;;5127608;27;20049;-85
2022/03/25 17:18:13;;;;;;;22.83;11.93;;;14.90;64.50;;;;;;5127392;27;20034;-84
2022/03/25 17:20:39;;;;;;;20.23;12.43;;;15.00;64.00;;;;;;5135101;27;20027;-85
2022/03/25 17:23:05;;;;;;;23.73;12.80;;;15.10;63.90;;;;;;5126985;27;20060;-84
2022/03/25 17:25:31;;;;;;;22.77;13.18;;;15.20;63.90;;;;;;5111006;27;20023;-84
2022/03/25 17:27:58;;;;;;;25.83;16.27;;;15.30;63.60;;;;;;5124683;27;20032;-84
2022/03/25 17:30:26;;;;;;;27.45;18.48;;;15.30;63.50;;;;;;5156050;27;20031;-85
2022/03/25 17:32:52;;;;;;;32.42;13.32;;;15.40;63.20;;;;;;5124133;27;20027;-83
2022/03/25 17:35:18;;;;;;;19.75;12.70;;;15.40;63.20;;;;;;5128682;27;20035;-84
2022/03/25 17:37:44;;;;;;;19.77;12.50;;;15.30;63.30;;;;;;5094247;27;20125;-86
2022/03/25 17:40:10;;;;;;;19.48;11.75;;;15.30;63.40;;;;;;5088222;28;20039;-85
2022/03/25 17:42:35;;;;;;;21.73;11.90;;;15.30;63.60;;;;;;5087288;28;20035;-85
2022/03/25 17:45:01;;;;;;;20.65;12.05;;;15.20;63.50;;;;;;5107229;28;20036;-85
2022/03/25 17:47:26;;;;;;;21.05;13.20;;;15.20;63.60;;;;;;5106046;28;20111;-85
2022/03/25 17:49:52;;;;;;;22.75;14.13;;;15.10;64.00;;;;;;5106126;28;20059;-87
2022/03/25 17:52:18;;;;;;;25.75;14.45;;;15.10;63.90;;;;;;5106782;28;20024;-84
2022/03/25 17:54:43;;;;;;;33.30;17.98;;;15.00;63.70;;;;;;5105933;28;20048;-84
2022/03/25 17:57:09;;;;;;;25.27;16.15;;;14.90;63.90;;;;;;5106052;28;20082;-84
2022/03/25 17:59:34;;;;;;;27.65;15.13;;;14.90;64.10;;;;;;5087927;28;20031;-86
2022/03/25 18:02:00;;;;;;;34.72;21.17;;;14.80;64.40;;;;;;5088500;28;20061;-85
2022/03/25 18:04:25;;;;;;;115.32;58.92;;;14.70;64.50;;;;;;5106402;28;20047;-86
2022/03/25 18:06:51;;;;;;;253.60;113.93;;;14.60;64.70;;;;;;5086945;28;20422;-86
2022/03/25 18:09:16;;;;;;;132.30;62.55;;;14.60;65.10;;;;;;5087675;28;20028;-86
2022/03/25 18:11:42;;;;;;;46.33;24.23;;;14.50;65.30;;;;;;5105926;28;20016;-84
2022/03/25 18:14:09;;;;;;;32.45;19.23;;;14.40;65.20;;;;;;5106088;28;20131;-84
2022/03/25 18:16:34;;;;;;;32.50;18.38;;;14.40;65.40;;;;;;5106151;28;20068;-84
2022/03/25 18:19:00;;;;;;;34.28;19.52;;;14.30;65.50;;;;;;5083011;28;20028;-84
2022/03/25 18:21:26;;;;;;;51.70;28.20;;;14.20;65.60;;;;;;5085894;28;20015;-83
2022/03/25 18:23:51;;;;;;;43.90;25.48;;;14.10;65.80;;;;;;5099399;28;20025;-84
2022/03/25 18:26:18;;;;;;;40.75;23.90;;;14.00;66.10;;;;;;5075504;28;20027;-83
2022/03/25 18:28:43;;;;;;;36.72;22.20;;;14.00;66.30;;;;;;5071185;28;20016;-85
2022/03/25 18:31:10;;;;;;;39.00;21.38;;;13.90;66.50;;;;;;5073024;28;20526;-85
2022/03/25 18:33:35;;;;;;;39.38;19.20;;;13.80;66.80;;;;;;5072652;28;20123;-85
2022/03/25 18:36:02;;;;;;;30.00;18.25;;;13.70;67.00;;;;;;5071279;28;20538;-84
2022/03/25 18:38:28;;;;;;;27.95;16.90;;;13.60;67.30;;;;;;5071241;28;20035;-85
2022/03/25 18:40:54;;;;;;;28.48;16.83;;;13.50;67.40;;;;;;5078266;28;20028;-84
2022/03/25 18:43:19;;;;;;;29.98;16.88;;;13.40;67.70;;;;;;5072245;28;20591;-85
2022/03/25 18:45:45;;;;;;;30.55;18.10;;;13.40;68.00;;;;;;5092199;28;20157;-83
2022/03/25 18:48:11;;;;;;;24.92;16.35;;;13.20;68.30;;;;;;5083060;28;20032;-85
2022/03/25 18:50:37;;;;;;;28.85;16.75;;;13.20;68.90;;;;;;5091228;28;20058;-85
2022/03/25 18:53:02;;;;;;;30.65;16.83;;;13.10;69.20;;;;;;5094572;28;20028;-84
2022/03/25 18:55:28;;;;;;;29.63;15.25;;;13.00;69.50;;;;;;5073742;28;20154;-84
2022/03/25 18:57:54;;;;;;;29.48;15.35;;;12.90;69.60;;;;;;5085221;28;20445;-86
2022/03/25 19:00:20;;;;;;;27.92;15.60;;;12.80;69.80;;;;;;5073417;28;20039;-85
2022/03/25 19:02:46;;;;;;;28.88;16.25;;;12.70;69.80;;;;;;5092135;28;20028;-85
2022/03/25 19:05:12;;;;;;;33.88;15.60;;;12.60;69.90;;;;;;5091976;28;20050;-84
2022/03/25 19:07:37;;;;;;;28.35;16.90;;;12.50;70.10;;;;;;5090463;28;20140;-84
2022/03/25 19:10:04;;;;;;;28.02;17.98;;;12.40;70.30;;;;;;5101442;28;20733;-84
2022/03/25 19:12:30;;;;;;;37.47;21.05;;;12.30;70.70;;;;;;5072158;28;20460;-84
2022/03/25 19:14:55;;;;;;;41.45;23.02;;;12.20;71.00;;;;;;5092926;28;20053;-84
2022/03/25 19:17:21;;;;;;;40.80;22.60;;;12.20;71.20;;;;;;5071049;28;20036;-85
2022/03/25 19:19:50;;;;;;;41.67;22.48;;;12.10;71.40;;;;;;5073429;28;20024;-86
2022/03/25 19:22:17;;;;;;;33.80;21.90;;;12.00;72.30;;;;;;5091457;28;20108;-85
2022/03/25 19:24:43;;;;;;;41.95;21.42;;;11.90;72.10;;;;;;5103461;28;20052;-86
2022/03/25 19:27:09;;;;;;;37.83;22.50;;;11.80;72.40;;;;;;5088072;28;20079;-84
2022/03/25 19:29:34;;;;;;;40.40;23.48;;;11.80;72.70;;;;;;5102513;28;20059;-85
2022/03/25 19:32:00;;;;;;;49.60;27.42;;;11.70;72.90;;;;;;5091545;28;20097;-83
2022/03/25 19:34:26;;;;;;;40.67;24.73;;;11.60;72.90;;;;;;5101292;28;20081;-87
2022/03/25 19:36:51;;;;;;;47.42;25.73;;;11.60;73.10;;;;;;5072723;28;20039;-85
2022/03/25 19:39:17;;;;;;;46.90;26.90;;;11.50;73.30;;;;;;5083684;28;20027;-84
2022/03/25 19:41:42;;;;;;;46.47;26.45;;;11.40;73.60;;;;;;5075231;28;20016;-85
2022/03/25 19:44:08;;;;;;;43.72;24.92;;;11.30;73.90;;;;;;5077158;28;20024;-83
2022/03/25 19:46:34;;;;;;;46.10;26.42;;;11.30;74.10;;;;;;5097261;28;20073;-87
2022/03/25 19:48:59;;;;;;;43.90;25.92;;;11.20;74.20;;;;;;5077988;28;20024;-86
2022/03/25 19:51:26;;;;;;;44.85;25.08;;;11.20;74.40;;;;;;5089238;28;20031;-85
2022/03/25 19:53:52;;;;;;;38.38;24.08;;;11.10;74.70;;;;;;5075324;28;20039;-86
2022/03/25 19:56:18;;;;;;;43.03;25.50;;;11.00;75.00;;;;;;5080796;28;20383;-84
2022/03/25 19:58:46;;;;;;;44.28;25.60;;;11.00;75.40;;;;;;5079189;28;20023;-87
2022/03/25 20:01:14;;;;;;;41.78;27.17;;;10.90;75.50;;;;;;5078314;28;20786;-87
2022/03/25 20:03:41;;;;;;;43.45;25.42;;;10.80;75.60;;;;;;5086453;28;20336;-85
2022/03/25 20:06:07;;;;;;;41.50;24.85;;;10.80;75.90;;;;;;5073359;28;20028;-88
2022/03/25 20:08:32;;;;;;;47.20;28.70;;;10.70;76.10;;;;;;5100862;28;20456;-87
2022/03/25 20:10:58;;;;;;;51.97;26.88;;;10.70;76.30;;;;;;5084628;28;20020;-86
2022/03/25 20:13:24;;;;;;;50.67;28.00;;;10.60;76.40;;;;;;5096684;28;20104;-84
2022/03/25 20:15:49;;;;;;;45.53;24.95;;;10.50;76.70;;;;;;5087952;28;20020;-85
2022/03/25 20:18:15;;;;;;;55.20;28.80;;;10.50;77.00;;;;;;5095056;28;20453;-85
2022/03/25 20:20:41;;;;;;;49.55;29.13;;;10.50;77.30;;;;;;5091273;28;20028;-85
2022/03/25 20:23:09;;;;;;;45.35;27.35;;;10.40;77.30;;;;;;5090934;28;20052;-86
2022/03/25 20:25:34;;;;;;;48.42;28.25;;;10.40;77.70;;;;;;5069243;28;20512;-87
2022/03/25 20:28:00;;;;;;;44.33;25.02;;;10.30;77.90;;;;;;5072165;28;20088;-84
2022/03/25 20:30:26;;;;;;;53.03;26.55;;;10.30;78.00;;;;;;5091297;28;20367;-85
2022/03/25 20:32:53;;;;;;;44.63;26.30;;;10.20;78.20;;;;;;5070447;28;20024;-85
2022/03/25 20:35:20;;;;;;;44.88;26.80;;;10.20;78.50;;;;;;5098128;28;20066;-86
2022/03/25 20:37:46;;;;;;;45.95;25.17;;;10.10;78.50;;;;;;5089475;28;20054;-85
2022/03/25 20:40:12;;;;;;;43.67;26.33;;;10.10;78.50;;;;;;5073191;28;20411;-87
2022/03/25 20:42:38;;;;;;;44.47;25.40;;;10.00;78.60;;;;;;5091836;28;20054;-84
2022/03/25 20:45:04;;;;;;;43.08;25.83;;;10.00;78.80;;;;;;5091821;28;20052;-85
2022/03/25 20:47:30;;;;;;;45.28;26.67;;;9.90;78.80;;;;;;5074045;28;20036;-85
2022/03/25 20:49:56;;;;;;;42.92;26.10;;;9.90;78.90;;;;;;5074816;28;20022;-86
2022/03/25 20:52:21;;;;;;;40.90;24.58;;;9.80;78.80;;;;;;5074914;28;20380;-88
2022/03/25 20:54:48;;;;;;;47.67;27.45;;;9.80;79.10;;;;;;5085939;28;20034;-85
2022/03/25 20:57:14;;;;;;;38.92;24.80;;;9.70;79.30;;;;;;5077774;28;20057;-84
2022/03/25 20:59:40;;;;;;;45.45;25.67;;;9.70;79.40;;;;;;5093649;28;20048;-84
2022/03/25 21:02:08;;;;;;;48.03;25.77;;;9.60;79.50;;;;;;5078577;28;20089;-83
2022/03/25 21:04:34;;;;;;;41.83;25.95;;;9.60;79.70;;;;;;5081014;28;20128;-87
2022/03/25 21:07:01;;;;;;;49.10;27.33;;;9.50;80.00;;;;;;5098734;28;20064;-83
2022/03/25 21:09:28;;;;;;;49.55;26.88;;;9.50;80.50;;;;;;5099334;28;20476;-86
2022/03/25 21:11:54;;;;;;;49.85;28.05;;;9.40;80.50;;;;;;5087661;28;20078;-86
2022/03/25 21:14:21;;;;;;;47.28;26.20;;;9.40;80.90;;;;;;5083298;28;20027;-86
2022/03/25 21:16:47;;;;;;;48.22;27.20;;;9.40;81.10;;;;;;5088340;28;20030;-87
2022/03/25 21:19:12;;;;;;;44.38;26.52;;;9.40;81.10;;;;;;5099529;28;20098;-85
2022/03/25 21:21:38;;;;;;;42.63;25.55;;;9.30;81.10;;;;;;5101598;28;20024;-85
2022/03/25 21:24:05;;;;;;;52.17;26.50;;;9.30;81.30;;;;;;5100157;28;20081;-86
2022/03/25 21:26:31;;;;;;;48.85;28.20;;;9.30;81.60;;;;;;5078419;28;20051;-84
2022/03/25 21:28:56;;;;;;;45.35;26.20;;;9.30;81.50;;;;;;5079758;28;20016;-82
2022/03/25 21:31:22;;;;;;;44.78;25.02;;;9.20;81.30;;;;;;5080627;28;20024;-84
2022/03/25 21:33:47;;;;;;;44.90;26.15;;;9.20;81.40;;;;;;5096908;28;20024;-87
2022/03/25 21:36:13;;;;;;;43.80;26.02;;;9.20;81.80;;;;;;5095124;28;20020;-83
2022/03/25 21:38:39;;;;;;;44.58;24.92;;;9.10;81.80;;;;;;5093147;28;20112;-85
2022/03/25 21:41:05;;;;;;;45.58;25.60;;;9.10;81.60;;;;;;5073675;28;20031;-85
2022/03/25 21:43:31;;;;;;;44.88;25.95;;;9.10;81.90;;;;;;5082613;28;20134;-86
2022/03/25 21:45:58;;;;;;;41.67;24.77;;;9.00;82.10;;;;;;5091720;28;20093;-83
2022/03/25 21:48:24;;;;;;;47.78;25.38;;;9.00;82.80;;;;;;5091382;28;20027;-85
2022/03/25 21:50:49;;;;;;;44.58;25.67;;;8.90;82.90;;;;;;5073844;28;20024;-86
2022/03/25 21:53:15;;;;;;;42.33;24.98;;;8.90;82.90;;;;;;5100421;28;20020;-85
2022/03/25 21:55:40;;;;;;;51.25;27.05;;;8.90;82.90;;;;;;5075712;28;20016;-84
2022/03/25 21:58:06;;;;;;;45.78;25.95;;;8.80;82.70;;;;;;5087969;28;20028;-84
2022/03/25 22:00:35;;;;;;;45.58;26.98;;;8.80;83.10;;;;;;5095112;28;20028;-83
2022/03/25 22:03:01;;;;;;;46.13;26.35;;;8.80;83.30;;;;;;5094151;28;20031;-86
2022/03/25 22:05:27;;;;;;;45.90;26.25;;;8.70;83.50;;;;;;5075881;28;20452;-85
2022/03/25 22:07:53;;;;;;;44.42;25.88;;;8.70;83.60;;;;;;5094300;28;20040;-84
2022/03/25 22:10:19;;;;;;;44.38;24.95;;;8.70;83.60;;;;;;5076163;28;20031;-83
2022/03/25 22:12:45;;;;;;;48.50;27.45;;;8.60;83.50;;;;;;5093867;28;20031;-88
2022/03/25 22:15:11;;;;;;;46.35;25.63;;;8.60;83.60;;;;;;5094088;28;20049;-84
2022/03/25 22:17:37;;;;;;;45.45;26.17;;;8.60;83.90;;;;;;5094225;28;20071;-84
2022/03/25 22:20:04;;;;;;;50.67;27.27;;;8.60;84.00;;;;;;5093721;28;20051;-85
2022/03/25 22:22:29;;;;;;;45.03;26.58;;;8.60;84.30;;;;;;5075276;28;20396;-85
2022/03/25 22:24:56;;;;;;;43.47;24.63;;;8.50;84.20;;;;;;5093557;28;20020;-87
2022/03/25 22:27:22;;;;;;;48.53;27.30;;;8.50;84.40;;;;;;5093312;28;20472;-85
2022/03/25 22:29:47;;;;;;;46.75;25.63;;;8.50;84.50;;;;;;5075743;28;20034;-86
2022/03/25 22:32:13;;;;;;;47.30;24.63;;;8.50;84.70;;;;;;5079350;28;20016;-82
2022/03/25 22:34:38;;;;;;;44.47;26.50;;;8.40;84.70;;;;;;5093185;28;20039;-85
2022/03/25 22:37:04;;;;;;;43.63;24.88;;;8.40;84.50;;;;;;5076481;28;20476;-83
2022/03/25 22:39:30;;;;;;;43.13;27.52;;;8.40;84.40;;;;;;5093425;28;20039;-85
2022/03/25 22:41:56;;;;;;;49.95;27.13;;;8.40;84.60;;;;;;5084530;28;20483;-85
2022/03/25 22:44:21;;;;;;;52.42;27.50;;;8.30;84.50;;;;;;5075275;28;20028;-83
2022/03/25 22:46:48;;;;;;;51.65;27.67;;;8.30;84.30;;;;;;5081515;28;20384;-85
2022/03/25 22:49:14;;;;;;;43.85;26.27;;;8.30;84.60;;;;;;5093473;28;20020;-84
2022/03/25 22:51:40;;;;;;;43.35;26.45;;;8.20;84.80;;;;;;5093400;28;20021;-87
2022/03/25 22:54:06;;;;;;;45.40;28.73;;;8.20;85.10;;;;;;5076327;28;20081;-84
2022/03/25 22:56:32;;;;;;;49.70;26.67;;;8.20;85.20;;;;;;5074815;28;20450;-87
2022/03/25 22:58:58;;;;;;;46.78;25.73;;;8.20;85.20;;;;;;5092580;28;20028;-83
2022/03/25 23:01:32;;;;;;;46.72;27.42;;;8.20;85.30;;;;;;5091851;28;20096;-85
2022/03/25 23:03:59;;;;;;;44.63;26.25;;;8.10;85.40;;;;;;5074213;28;20016;-86
2022/03/25 23:06:25;;;;;;;51.08;28.77;;;8.10;85.60;;;;;;5091810;28;20032;-84
2022/03/25 23:08:51;;;;;;;48.53;27.35;;;8.10;85.70;;;;;;5092762;28;20024;-85
2022/03/25 23:11:17;;;;;;;48.10;28.85;;;8.10;85.80;;;;;;5092389;28;20020;-86
2022/03/25 23:13:43;;;;;;;50.42;29.23;;;8.00;85.90;;;;;;5075026;28;20020;-86
2022/03/25 23:16:08;;;;;;;44.60;27.55;;;8.00;86.00;;;;;;5092434;28;20055;-84
2022/03/25 23:18:34;;;;;;;48.13;27.75;;;8.00;85.90;;;;;;5077120;28;20028;-85
2022/03/25 23:20:59;;;;;;;47.83;27.65;;;8.00;86.00;;;;;;5077631;28;20024;-87
2022/03/25 23:23:25;;;;;;;46.65;27.50;;;8.00;86.30;;;;;;5076547;28;20364;-86
2022/03/25 23:25:51;;;;;;;50.63;28.27;;;7.90;86.60;;;;;;5094149;28;20028;-83
2022/03/25 23:28:17;;;;;;;44.90;27.25;;;8.00;87.00;;;;;;5080030;28;20032;-84
2022/03/25 23:30:43;;;;;;;41.47;25.77;;;8.00;86.80;;;;;;5086608;28;20024;-84
2022/03/25 23:33:08;;;;;;;44.65;27.58;;;7.90;86.70;;;;;;5105669;28;20020;-85
2022/03/25 23:35:36;;;;;;;41.03;26.52;;;7.90;86.90;;;;;;5090541;28;20047;-84
2022/03/25 23:38:02;;;;;;;48.05;28.05;;;7.90;87.40;;;;;;5087900;28;20031;-84
2022/03/25 23:40:27;;;;;;;55.00;30.42;;;7.90;87.40;;;;;;5106760;28;20062;-86
2022/03/25 23:42:53;;;;;;;52.90;27.17;;;7.90;87.40;;;;;;5106356;28;20020;-86
2022/03/25 23:45:19;;;;;;;53.40;27.48;;;7.90;87.30;;;;;;5079913;28;20069;-85
2022/03/25 23:47:45;;;;;;;48.50;26.77;;;7.90;87.30;;;;;;5083265;28;20483;-82
2022/03/25 23:50:11;;;;;;;44.92;27.15;;;7.90;87.30;;;;;;5091537;28;20028;-83
2022/03/25 23:52:38;;;;;;;43.78;25.48;;;7.90;87.80;;;;;;5095485;28;20030;-83
2022/03/25 23:55:06;;;;;;;45.85;27.52;;;7.90;87.50;;;;;;5073482;28;20038;-82
2022/03/25 23:57:32;;;;;;;48.63;26.63;;;7.90;87.60;;;;;;5089569;28;20062;-84
2022/03/25 23:59:57;;;;;;;47.83;27.13;;;7.80;87.30;;;;;;5076361;28;20028;-85
